Terminal Aerodrome Forecast
Issued by NWS

Home | Current Version | Previous Version | Text Only | Print | Product List | Glossary On
Versions: 1 2 3 4 5 6 7 8 9 10 11 12 13 14 15 16
000
FTUS46 KMFR 221100
TAFRBG
TAF
KRBG 221135Z 2212/2312 19005KT P6SM -SHRA SCT060 OVC080
     FM221400 17007KT P6SM -RA SCT040 BKN050 OVC080
     FM222100 18010G15KT P6SM -RA BKN040 OVC060
     FM230200 17005KT 6SM -RA BR BKN025 OVC040=

USA.gov is the U.S. government's official web portal to all federal, state and local government web resources and services.